createdAt,value
2022-12-11T00:00:09.893Z,31.10
2022-12-11T00:02:36.838Z,31.65
2022-12-11T00:05:03.908Z,30.45
2022-12-11T00:07:30.832Z,29.92
2022-12-11T00:09:57.526Z,30.55
2022-12-11T00:12:24.215Z,29.00
2022-12-11T00:14:50.914Z,26.95
2022-12-11T00:17:17.590Z,28.73
2022-12-11T00:19:47.451Z,27.23
2022-12-11T00:22:14.215Z,29.35
2022-12-11T00:24:40.925Z,26.38
2022-12-11T00:27:08.020Z,29.80
2022-12-11T00:29:34.858Z,24.13
2022-12-11T00:32:01.777Z,24.85
2022-12-11T00:34:28.630Z,25.30
2022-12-11T00:36:55.330Z,26.80
2022-12-11T00:39:22.074Z,25.80
2022-12-11T00:41:48.793Z,28.00
2022-12-11T00:44:15.513Z,26.95
2022-12-11T00:46:42.230Z,28.90
2022-12-11T00:49:08.999Z,29.02
2022-12-11T00:51:35.683Z,28.33
2022-12-11T00:54:03.891Z,28.75
2022-12-11T00:56:30.737Z,28.85
2022-12-11T00:58:57.703Z,28.75
2022-12-11T01:01:25.862Z,28.45
2022-12-11T01:03:53.944Z,29.90
2022-12-11T01:06:23.939Z,29.65
2022-12-11T01:09:11.346Z,30.23
2022-12-11T01:11:40.056Z,28.35
2022-12-11T01:14:07.654Z,30.95
2022-12-11T01:16:34.689Z,30.58
2022-12-11T01:19:01.485Z,31.80
2022-12-11T01:21:28.155Z,31.38
2022-12-11T01:23:54.958Z,30.60
2022-12-11T01:26:21.928Z,32.58
2022-12-11T01:28:52.462Z,31.67
2022-12-11T01:31:20.425Z,34.17
2022-12-11T01:33:47.204Z,32.15
2022-12-11T01:36:19.923Z,35.55
2022-12-11T01:38:48.113Z,34.50
2022-12-11T01:41:15.850Z,34.92
2022-12-11T01:44:00.810Z,33.70
2022-12-11T01:46:28.623Z,35.38
2022-12-11T01:48:55.978Z,35.95
2022-12-11T01:51:24.696Z,37.65
2022-12-11T01:54:00.367Z,36.00
2022-12-11T01:56:29.371Z,40.53
2022-12-11T01:59:00.168Z,38.55
2022-12-11T02:01:55.555Z,39.33
2022-12-11T02:04:23.568Z,35.33
2022-12-11T02:06:52.484Z,38.28
2022-12-11T02:09:30.165Z,37.63
2022-12-11T02:12:21.521Z,36.80
2022-12-11T02:15:26.811Z,37.38
2022-12-11T02:17:53.473Z,39.42
2022-12-11T02:20:33.598Z,38.95
2022-12-11T02:23:12.652Z,38.67
2022-12-11T02:26:12.135Z,35.65
2022-12-11T02:29:02.867Z,36.72
2022-12-11T02:31:32.487Z,36.63
2022-12-11T02:33:59.177Z,39.03
2022-12-11T02:36:29.312Z,39.30
2022-12-11T02:38:59.715Z,41.58
2022-12-11T02:41:28.714Z,39.45
2022-12-11T02:43:57.355Z,38.83
2022-12-11T02:46:26.156Z,35.40
2022-12-11T02:48:53.750Z,38.55
2022-12-11T02:51:27.262Z,37.05
2022-12-11T02:53:57.849Z,36.33
2022-12-11T02:56:30.625Z,37.53
2022-12-11T02:59:03.120Z,33.03
2022-12-11T03:01:30.106Z,36.50
2022-12-11T03:03:58.026Z,32.45
2022-12-11T03:06:31.850Z,35.92
2022-12-11T03:08:58.654Z,36.40
2022-12-11T03:11:25.375Z,34.80
2022-12-11T03:13:53.536Z,34.30
2022-12-11T03:16:32.255Z,30.25
2022-12-11T03:19:19.241Z,32.03
2022-12-11T03:21:53.340Z,27.92
2022-12-11T03:24:45.627Z,26.73
2022-12-11T03:27:24.433Z,28.67
2022-12-11T03:30:02.284Z,26.67
2022-12-11T03:32:52.614Z,25.65
2022-12-11T03:35:25.483Z,26.27
2022-12-11T03:37:55.166Z,24.23
2022-12-11T03:40:23.813Z,26.50
2022-12-11T03:42:52.633Z,25.20
2022-12-11T03:45:22.214Z,27.00
2022-12-11T03:47:51.086Z,25.20
2022-12-11T03:50:20.008Z,26.42
2022-12-11T03:52:48.208Z,28.42
2022-12-11T03:55:17.654Z,26.83
2022-12-11T03:57:45.167Z,28.10
2022-12-11T04:00:15.812Z,25.90
2022-12-11T04:02:43.227Z,29.80
2022-12-11T04:05:11.797Z,27.10
2022-12-11T04:07:38.708Z,25.25
2022-12-11T04:10:06.228Z,25.25
2022-12-11T04:12:32.903Z,24.02
2022-12-11T04:15:02.647Z,24.90
2022-12-11T04:17:53.549Z,26.33
2022-12-11T04:20:40.004Z,24.60
2022-12-11T04:23:30.545Z,25.08
2022-12-11T04:26:12.476Z,26.85
2022-12-11T04:28:40.099Z,24.10
2022-12-11T04:31:10.667Z,24.05
2022-12-11T04:33:37.443Z,24.05
2022-12-11T04:36:04.450Z,27.83
2022-12-11T04:38:31.159Z,23.38
2022-12-11T04:41:03.379Z,23.08
2022-12-11T04:43:30.479Z,23.83
2022-12-11T04:46:09.655Z,22.80
2022-12-11T04:48:37.683Z,24.20
2022-12-11T04:51:05.524Z,24.77
2022-12-11T04:53:32.579Z,22.05
2022-12-11T04:55:59.339Z,22.65
2022-12-11T04:58:26.944Z,22.77
2022-12-11T05:00:54.161Z,22.25
2022-12-11T05:03:21.152Z,22.52
2022-12-11T05:05:49.367Z,23.05
2022-12-11T05:08:16.716Z,21.40
2022-12-11T05:10:49.838Z,21.92
2022-12-11T05:13:16.870Z,23.38
2022-12-11T05:15:43.591Z,22.52
2022-12-11T05:18:10.428Z,23.60
2022-12-11T05:20:37.103Z,23.50
2022-12-11T05:23:03.785Z,22.38
2022-12-11T05:25:30.539Z,25.25
2022-12-11T05:27:57.300Z,23.25
2022-12-11T05:30:24.062Z,23.65
2022-12-11T05:32:50.752Z,22.27
2022-12-11T05:35:17.850Z,22.98
2022-12-11T05:37:44.553Z,24.58
2022-12-11T05:40:15.199Z,22.02
2022-12-11T05:42:41.854Z,19.45
2022-12-11T05:45:09.149Z,25.45
2022-12-11T05:47:36.146Z,25.08
2022-12-11T05:50:02.927Z,22.92
2022-12-11T05:52:31.672Z,24.17
2022-12-11T05:54:58.415Z,24.20
2022-12-11T05:57:25.380Z,22.20
2022-12-11T05:59:52.049Z,22.75
2022-12-11T06:02:19.097Z,22.90
2022-12-11T06:04:45.808Z,23.42
2022-12-11T06:07:13.185Z,20.92
2022-12-11T06:09:39.895Z,21.15
2022-12-11T06:12:06.736Z,23.05
2022-12-11T06:14:33.472Z,23.65
2022-12-11T06:17:00.172Z,21.15
2022-12-11T06:19:28.139Z,23.05
2022-12-11T06:21:57.512Z,19.08
2022-12-11T06:24:24.488Z,23.15
2022-12-11T06:26:51.270Z,20.70
2022-12-11T06:29:18.070Z,22.80
2022-12-11T06:31:44.793Z,19.73
2022-12-11T06:34:13.733Z,19.95
2022-12-11T06:36:40.848Z,21.50
2022-12-11T06:39:07.592Z,22.42
2022-12-11T06:41:34.360Z,21.67
2022-12-11T06:44:01.048Z,21.15
2022-12-11T06:46:27.775Z,17.98
2022-12-11T06:48:54.531Z,19.77
2022-12-11T06:51:23.528Z,21.17
2022-12-11T06:53:54.828Z,20.65
2022-12-11T06:56:22.495Z,20.08
2022-12-11T06:58:49.687Z,18.63
2022-12-11T07:01:27.382Z,21.40
2022-12-11T07:03:58.810Z,20.13
2022-12-11T07:06:26.864Z,19.75
2022-12-11T07:08:54.429Z,20.67
2022-12-11T07:11:22.131Z,19.98
2022-12-11T07:13:49.209Z,22.55
2022-12-11T07:16:17.799Z,23.80
2022-12-11T07:18:48.375Z,18.00
2022-12-11T07:21:15.321Z,21.75
2022-12-11T07:23:42.233Z,22.83
2022-12-11T07:26:12.455Z,20.33
2022-12-11T07:28:39.771Z,20.00
2022-12-11T07:31:07.396Z,20.42
2022-12-11T07:33:34.439Z,18.88
2022-12-11T07:36:06.360Z,16.88
2022-12-11T07:38:33.041Z,18.35
2022-12-11T07:41:05.313Z,17.60
2022-12-11T07:43:33.117Z,18.80
2022-12-11T07:46:04.927Z,19.95
2022-12-11T07:48:31.967Z,18.40
2022-12-11T07:51:17.778Z,20.05
2022-12-11T07:53:49.645Z,18.98
2022-12-11T07:56:17.782Z,19.08
2022-12-11T07:58:45.189Z,17.58
2022-12-11T08:01:18.410Z,19.52
2022-12-11T08:03:45.648Z,19.25
2022-12-11T08:06:12.809Z,17.48
2022-12-11T08:08:41.334Z,18.23
2022-12-11T08:11:11.798Z,17.77
2022-12-11T08:13:38.785Z,20.27
2022-12-11T08:16:07.264Z,18.48
2022-12-11T08:18:35.175Z,15.98
2022-12-11T08:21:16.476Z,17.77
2022-12-11T08:23:43.667Z,18.08
2022-12-11T08:26:14.887Z,18.83
2022-12-11T08:28:42.055Z,21.95
2022-12-11T08:31:11.381Z,19.80
2022-12-11T08:33:39.485Z,19.38
2022-12-11T08:36:08.563Z,20.35
2022-12-11T08:38:35.889Z,20.10
2022-12-11T08:41:13.100Z,21.08
2022-12-11T08:43:40.326Z,19.83
2022-12-11T08:46:09.154Z,19.60
2022-12-11T08:48:37.423Z,19.02
2022-12-11T08:51:07.852Z,22.17
2022-12-11T08:53:34.753Z,20.70
2022-12-11T08:56:06.772Z,17.08
2022-12-11T08:58:33.797Z,20.63
2022-12-11T09:01:00.635Z,19.10
2022-12-11T09:03:27.443Z,20.45
2022-12-11T09:05:54.135Z,21.85
2022-12-11T09:08:20.945Z,19.83
2022-12-11T09:10:47.773Z,20.67
2022-12-11T09:13:14.459Z,19.25
2022-12-11T09:15:41.750Z,20.02
2022-12-11T09:18:08.978Z,21.02
2022-12-11T09:20:35.712Z,21.25
2022-12-11T09:23:02.881Z,19.58
2022-12-11T09:25:29.691Z,17.40
2022-12-11T09:27:56.460Z,18.55
2022-12-11T09:30:23.646Z,21.45
2022-12-11T09:32:51.078Z,20.27
2022-12-11T09:35:17.898Z,20.40
2022-12-11T09:37:44.691Z,22.15
2022-12-11T09:40:12.661Z,21.40
2022-12-11T09:42:48.281Z,22.38
2022-12-11T09:45:16.756Z,21.08
2022-12-11T09:47:50.365Z,22.00
2022-12-11T09:50:32.779Z,22.45
2022-12-11T09:53:06.237Z,20.95
2022-12-11T09:55:41.770Z,22.95
2022-12-11T09:58:25.868Z,22.27
2022-12-11T10:01:34.815Z,22.60
2022-12-11T10:04:33.768Z,22.42
2022-12-11T10:07:30.944Z,21.33
2022-12-11T10:10:28.365Z,23.50
2022-12-11T10:13:04.392Z,19.23
2022-12-11T10:15:37.196Z,24.35
2022-12-11T10:18:10.006Z,22.33
2022-12-11T10:20:40.323Z,23.55
2022-12-11T10:23:19.458Z,21.45
2022-12-11T10:26:20.635Z,21.67
2022-12-11T10:31:18.963Z,20.95
2022-12-11T10:34:03.867Z,22.85
2022-12-11T10:36:34.783Z,22.88
2022-12-11T10:41:42.466Z,22.13
2022-12-11T10:44:20.206Z,23.27
2022-12-11T10:46:48.975Z,22.15
2022-12-11T10:49:27.822Z,21.00
2022-12-11T10:51:55.974Z,22.92
2022-12-11T10:54:38.070Z,22.10
2022-12-11T10:57:07.193Z,21.02
2022-12-11T10:59:48.890Z,20.02
2022-12-11T11:02:34.441Z,21.88
2022-12-11T11:05:15.505Z,20.55
2022-12-11T11:10:12.167Z,19.13
2022-12-11T11:12:42.014Z,20.55
2022-12-11T11:15:15.858Z,20.15
2022-12-11T11:17:55.077Z,19.80
2022-12-11T11:20:29.054Z,17.77
2022-12-11T11:22:58.636Z,21.52
2022-12-11T11:25:28.576Z,20.30
2022-12-11T11:27:59.812Z,20.48
2022-12-11T11:30:34.024Z,24.00
2022-12-11T11:33:05.468Z,20.95
2022-12-11T11:35:32.918Z,24.05
2022-12-11T11:38:19.977Z,22.30
2022-12-11T11:40:59.364Z,21.33
2022-12-11T11:43:32.246Z,21.38
2022-12-11T11:46:16.694Z,21.17
2022-12-11T11:48:52.421Z,20.38
2022-12-11T11:51:29.329Z,20.73
2022-12-11T11:54:00.325Z,19.25
2022-12-11T11:59:15.285Z,20.25
2022-12-11T12:01:43.542Z,20.42
2022-12-11T12:04:11.465Z,20.45
2022-12-11T12:07:19.409Z,21.92
2022-12-11T12:10:13.965Z,21.85
2022-12-11T12:12:49.772Z,20.10
2022-12-11T12:15:22.298Z,19.90
2022-12-11T12:17:57.304Z,19.48
2022-12-11T12:20:54.553Z,22.02
2022-12-11T12:23:36.953Z,20.15
2022-12-11T12:26:16.143Z,17.10
2022-12-11T12:28:53.747Z,18.13
2022-12-11T12:31:38.452Z,19.55
2022-12-11T12:34:22.475Z,17.05
2022-12-11T12:37:19.576Z,21.77
2022-12-11T12:40:01.467Z,18.58
2022-12-11T12:42:52.435Z,18.95
2022-12-11T12:46:11.349Z,19.35
2022-12-11T12:48:38.527Z,21.10
2022-12-11T12:51:06.276Z,17.08
2022-12-11T12:53:36.739Z,19.83
2022-12-11T12:56:05.471Z,16.80
2022-12-11T12:58:35.534Z,18.15
2022-12-11T13:01:09.523Z,17.47
2022-12-11T13:03:55.382Z,17.30
2022-12-11T13:06:50.122Z,16.50
2022-12-11T13:09:26.455Z,16.35
2022-12-11T13:11:57.941Z,19.65
2022-12-11T13:14:32.620Z,17.70
2022-12-11T13:17:19.909Z,21.67
2022-12-11T13:19:47.728Z,13.88
2022-12-11T13:22:14.359Z,12.27
2022-12-11T13:24:52.120Z,13.05
2022-12-11T13:27:36.183Z,15.70
2022-12-11T13:30:14.074Z,16.17
2022-12-11T13:33:02.801Z,16.92
2022-12-11T13:35:31.898Z,17.67
2022-12-11T13:38:06.142Z,15.50
2022-12-11T13:40:39.172Z,18.77
2022-12-11T13:43:23.275Z,18.08
2022-12-11T13:45:59.154Z,15.32
2022-12-11T13:48:39.593Z,17.92
2022-12-11T13:51:07.227Z,17.48
2022-12-11T13:53:33.960Z,19.05
2022-12-11T13:56:06.178Z,19.33
2022-12-11T13:58:40.055Z,18.73
2022-12-11T14:01:15.335Z,17.63
2022-12-11T14:03:51.143Z,18.55
2022-12-11T14:06:19.134Z,18.77
2022-12-11T14:08:49.421Z,16.15
2022-12-11T14:11:31.259Z,18.48
2022-12-11T14:14:01.679Z,16.85
2022-12-11T14:16:29.481Z,16.83
2022-12-11T14:19:02.427Z,17.88
2022-12-11T14:21:29.156Z,15.73
2022-12-11T14:23:58.288Z,16.60
2022-12-11T14:26:32.936Z,16.52
2022-12-11T14:29:00.087Z,14.45
2022-12-11T14:31:40.617Z,15.10
2022-12-11T14:34:15.474Z,15.85
2022-12-11T14:36:43.247Z,16.65
2022-12-11T14:39:36.507Z,18.98
2022-12-11T14:42:04.967Z,17.63
2022-12-11T14:44:38.487Z,16.58
2022-12-11T14:47:15.511Z,17.40
2022-12-11T14:49:58.778Z,18.35
2022-12-11T14:52:37.944Z,17.80
2022-12-11T14:55:10.602Z,18.27
2022-12-11T14:57:40.726Z,18.02
2022-12-11T15:00:08.141Z,15.35
2022-12-11T15:02:36.672Z,17.20
2022-12-11T15:05:14.402Z,17.23
2022-12-11T15:07:58.035Z,18.67
2022-12-11T15:10:31.293Z,16.33
2022-12-11T15:12:59.087Z,16.52
2022-12-11T15:15:27.910Z,16.05
2022-12-11T15:17:54.787Z,14.88
2022-12-11T15:20:25.007Z,15.20
2022-12-11T15:22:52.770Z,14.82
2022-12-11T15:25:26.022Z,16.05
2022-12-11T15:27:59.636Z,15.13
2022-12-11T15:30:34.708Z,13.32
2022-12-11T15:33:10.690Z,15.68
2022-12-11T15:35:39.584Z,13.48
2022-12-11T15:38:06.923Z,16.67
2022-12-11T15:40:34.741Z,14.45
2022-12-11T15:43:02.248Z,15.82
2022-12-11T15:45:29.220Z,16.60
2022-12-11T15:47:56.414Z,16.20
2022-12-11T15:50:23.128Z,19.13
2022-12-11T15:52:51.084Z,18.20
2022-12-11T15:55:18.646Z,15.07
2022-12-11T15:57:49.027Z,18.77
2022-12-11T16:00:18.689Z,19.23
2022-12-11T16:02:46.287Z,19.23
2022-12-11T16:05:13.615Z,18.10
2022-12-11T16:07:40.676Z,22.17
2022-12-11T16:10:12.661Z,20.35
2022-12-11T16:12:39.693Z,20.42
2022-12-11T16:15:06.960Z,20.48
2022-12-11T16:17:33.684Z,20.67
2022-12-11T16:20:00.434Z,20.60
2022-12-11T16:22:27.242Z,17.17
2022-12-11T16:24:54.842Z,19.17
2022-12-11T16:27:23.418Z,19.88
2022-12-11T16:29:50.766Z,18.63
2022-12-11T16:32:17.933Z,19.00
2022-12-11T16:34:44.883Z,22.27
2022-12-11T16:37:12.988Z,19.10
2022-12-11T16:39:39.948Z,19.90
2022-12-11T16:42:07.093Z,18.48
2022-12-11T16:44:33.916Z,17.75
2022-12-11T16:47:00.587Z,19.63
2022-12-11T16:49:27.336Z,17.48
2022-12-11T16:51:54.026Z,18.15
2022-12-11T16:54:21.798Z,18.75
2022-12-11T16:56:48.533Z,18.77
2022-12-11T16:59:15.247Z,20.13
2022-12-11T17:01:42.100Z,17.60
2022-12-11T17:04:09.777Z,18.23
2022-12-11T17:06:36.500Z,19.85
2022-12-11T17:09:03.423Z,20.38
2022-12-11T17:11:30.238Z,20.63
2022-12-11T17:13:59.114Z,18.38
2022-12-11T17:16:29.075Z,21.17
2022-12-11T17:18:57.350Z,19.73
2022-12-11T17:21:24.882Z,18.45
2022-12-11T17:23:52.028Z,21.92
2022-12-11T17:26:19.096Z,19.42
2022-12-11T17:28:45.888Z,20.15
2022-12-11T17:31:15.516Z,21.58
2022-12-11T17:33:44.105Z,20.95
2022-12-11T17:36:13.458Z,23.83
2022-12-11T17:38:40.384Z,23.85
2022-12-11T17:41:08.912Z,23.02
2022-12-11T17:43:36.069Z,21.85
2022-12-11T17:46:03.931Z,23.33
2022-12-11T17:48:31.054Z,23.23
2022-12-11T17:50:58.868Z,20.88
2022-12-11T17:53:26.364Z,24.88
2022-12-11T17:55:53.807Z,20.25
2022-12-11T17:58:22.949Z,25.33
2022-12-11T18:00:53.132Z,20.52
2022-12-11T18:03:20.657Z,22.15
2022-12-11T18:05:50.746Z,23.48
2022-12-11T18:08:21.089Z,24.77
2022-12-11T18:10:48.086Z,22.75
2022-12-11T18:13:15.360Z,23.83
2022-12-11T18:15:42.187Z,21.58
2022-12-11T18:18:09.352Z,26.17
2022-12-11T18:20:37.367Z,23.58
2022-12-11T18:23:04.959Z,22.23
2022-12-11T18:25:32.122Z,21.05
2022-12-11T18:27:59.739Z,22.67
2022-12-11T18:30:26.517Z,23.35
2022-12-11T18:32:53.250Z,24.58
2022-12-11T18:35:20.067Z,25.33
2022-12-11T18:37:46.873Z,24.70
2022-12-11T18:40:13.587Z,26.15
2022-12-11T18:42:40.426Z,25.73
2022-12-11T18:45:07.795Z,21.33
2022-12-11T18:47:34.694Z,25.05
2022-12-11T18:50:07.455Z,22.48
2022-12-11T18:52:34.904Z,25.85
2022-12-11T18:55:01.571Z,24.27
2022-12-11T18:57:28.264Z,28.65
2022-12-11T18:59:55.136Z,25.00
2022-12-11T19:02:22.425Z,27.13
2022-12-11T19:04:49.178Z,24.65
2022-12-11T19:07:16.336Z,26.60
2022-12-11T19:09:47.824Z,25.35
2022-12-11T19:12:15.114Z,24.70
2022-12-11T19:14:41.902Z,23.35
2022-12-11T19:17:08.662Z,24.70
2022-12-11T19:19:35.957Z,23.95
2022-12-11T19:22:03.918Z,25.98
2022-12-11T19:24:30.734Z,25.75
2022-12-11T19:26:59.865Z,40.55
2022-12-11T19:29:29.334Z,26.40
2022-12-11T19:31:56.455Z,24.65
2022-12-11T19:34:24.061Z,27.17
2022-12-11T19:36:51.271Z,29.73
2022-12-11T19:39:19.611Z,24.63
2022-12-11T19:41:46.723Z,26.27
2022-12-11T19:44:13.952Z,24.15
2022-12-11T19:46:40.911Z,25.35
2022-12-11T19:49:07.781Z,28.50
2022-12-11T19:51:38.589Z,23.60
2022-12-11T19:54:07.279Z,26.10
2022-12-11T19:56:35.187Z,27.80
2022-12-11T19:59:03.586Z,28.20
2022-12-11T20:01:32.246Z,25.80
2022-12-11T20:04:02.574Z,26.88
2022-12-11T20:06:32.950Z,27.10
2022-12-11T20:09:00.066Z,29.67
2022-12-11T20:11:27.485Z,27.35
2022-12-11T20:13:55.673Z,27.35
2022-12-11T20:16:39.584Z,24.20
2022-12-11T20:19:11.774Z,27.08
2022-12-11T20:21:38.618Z,30.42
2022-12-11T20:24:05.681Z,25.90
2022-12-11T20:26:36.010Z,27.17
2022-12-11T20:29:08.323Z,26.15
2022-12-11T20:31:36.287Z,29.40
2022-12-11T20:34:04.056Z,25.40
2022-12-11T20:36:30.816Z,27.40
2022-12-11T20:38:57.991Z,26.42
2022-12-11T20:41:25.877Z,28.02
2022-12-11T20:43:54.916Z,26.08
2022-12-11T20:46:26.204Z,26.27
2022-12-11T20:48:56.158Z,27.33
2022-12-11T20:51:26.285Z,24.10
2022-12-11T20:54:01.124Z,26.73
2022-12-11T20:56:30.181Z,24.05
2022-12-11T20:58:59.530Z,26.17
2022-12-11T21:01:29.217Z,25.83
2022-12-11T21:03:56.659Z,29.58
2022-12-11T21:06:29.980Z,24.60
2022-12-11T21:08:58.544Z,25.17
2022-12-11T21:11:25.526Z,26.23
2022-12-11T21:13:52.645Z,31.42
2022-12-11T21:16:20.971Z,26.50
2022-12-11T21:18:48.283Z,26.67
2022-12-11T21:21:15.924Z,28.48
2022-12-11T21:23:42.976Z,28.33
2022-12-11T21:26:09.757Z,27.27
2022-12-11T21:28:36.618Z,24.40
2022-12-11T21:31:09.691Z,27.38
2022-12-11T21:33:36.582Z,26.25
2022-12-11T21:36:04.217Z,26.83
2022-12-11T21:38:31.150Z,29.33
2022-12-11T21:40:58.346Z,28.60
2022-12-11T21:43:25.057Z,26.00
2022-12-11T21:46:01.401Z,28.92
2022-12-11T21:48:28.692Z,28.45
2022-12-11T21:50:55.751Z,27.92
2022-12-11T21:53:22.861Z,28.70
2022-12-11T21:55:49.580Z,27.75
2022-12-11T21:58:16.338Z,24.85
2022-12-11T22:00:45.239Z,26.95
2022-12-11T22:03:13.355Z,28.60
2022-12-11T22:05:40.078Z,26.83
2022-12-11T22:08:07.226Z,28.00
2022-12-11T22:10:34.068Z,29.25
2022-12-11T22:13:00.748Z,26.30
2022-12-11T22:15:27.531Z,26.75
2022-12-11T22:17:54.339Z,28.55
2022-12-11T22:20:21.091Z,28.95
2022-12-11T22:22:47.956Z,28.02
2022-12-11T22:25:14.975Z,28.70
2022-12-11T22:27:41.899Z,26.60
2022-12-11T22:30:09.322Z,29.15
2022-12-11T22:32:36.500Z,30.20
2022-12-11T22:35:04.275Z,30.35
2022-12-11T22:37:31.013Z,30.75
2022-12-11T22:39:57.873Z,24.98
2022-12-11T22:42:24.567Z,25.80
2022-12-11T22:44:51.298Z,30.75
2022-12-11T22:47:18.096Z,25.25
2022-12-11T22:49:45.059Z,30.00
2022-12-11T22:52:11.775Z,27.20
2022-12-11T22:54:40.011Z,30.15
2022-12-11T22:57:07.397Z,27.17
2022-12-11T22:59:34.181Z,26.95
2022-12-11T23:02:01.239Z,30.58
2022-12-11T23:04:28.053Z,24.95
2022-12-11T23:06:54.900Z,26.25
2022-12-11T23:09:21.966Z,25.90
2022-12-11T23:11:48.670Z,28.08
2022-12-11T23:14:17.878Z,25.88
2022-12-11T23:16:44.784Z,24.38
2022-12-11T23:19:12.448Z,28.55
2022-12-11T23:21:39.407Z,27.10
2022-12-11T23:24:06.297Z,27.20
2022-12-11T23:26:33.082Z,25.27
2022-12-11T23:29:00.354Z,25.65
2022-12-11T23:31:27.632Z,29.35
2022-12-11T23:33:54.401Z,28.35
2022-12-11T23:36:21.470Z,26.27
2022-12-11T23:38:54.378Z,29.10
2022-12-11T23:41:22.040Z,27.98
2022-12-11T23:43:48.944Z,27.98
2022-12-11T23:46:19.539Z,23.13
2022-12-11T23:48:46.410Z,26.02
2022-12-11T23:51:15.812Z,24.83
2022-12-11T23:53:43.085Z,27.42
2022-12-11T23:56:15.481Z,25.95
2022-12-11T23:58:42.309Z,28.80
